createdAt,value
2023-03-17T00:02:12.439Z,80.00
2023-03-17T00:04:40.522Z,72.00
2023-03-17T00:07:15.705Z,79.67
2023-03-17T00:09:45.347Z,77.67
2023-03-17T00:12:15.443Z,83.00
2023-03-17T00:14:46.911Z,86.67
2023-03-17T00:17:16.400Z,86.67
2023-03-17T00:19:44.785Z,77.50
2023-03-17T00:22:22.306Z,69.00
2023-03-17T00:24:50.388Z,71.00
2023-03-17T00:27:19.169Z,77.00
2023-03-17T00:29:47.192Z,72.00
2023-03-17T00:32:19.554Z,77.00
2023-03-17T00:34:48.436Z,69.00
2023-03-17T00:37:16.193Z,70.00
2023-03-17T00:39:44.026Z,75.00
2023-03-17T00:42:13.662Z,78.00
2023-03-17T00:44:41.671Z,77.50
2023-03-17T00:47:12.062Z,61.50
2023-03-17T00:49:41.974Z,56.33
2023-03-17T00:52:10.828Z,48.00
2023-03-17T00:54:40.184Z,41.67
2023-03-17T00:57:10.976Z,41.00
2023-03-17T00:59:42.736Z,39.67
2023-03-17T01:02:13.957Z,42.00
2023-03-17T01:04:45.591Z,39.00
2023-03-17T01:07:15.606Z,30.00
2023-03-17T01:09:45.313Z,42.67
2023-03-17T01:12:16.526Z,36.50
2023-03-17T01:14:44.260Z,40.00
2023-03-17T01:17:18.811Z,35.33
2023-03-17T01:19:48.103Z,38.00
2023-03-17T01:22:15.947Z,35.00
2023-03-17T01:24:44.761Z,40.67
2023-03-17T01:27:13.042Z,42.00
2023-03-17T01:29:41.673Z,37.00
2023-03-17T01:32:09.540Z,40.00
2023-03-17T01:34:38.225Z,34.33
2023-03-17T01:37:07.119Z,48.00
2023-03-17T01:39:35.420Z,46.50
2023-03-17T01:42:04.454Z,46.00
2023-03-17T01:44:33.633Z,43.67
2023-03-17T01:47:01.456Z,54.50
2023-03-17T01:49:36.901Z,46.50
2023-03-17T01:52:15.164Z,43.00
2023-03-17T01:55:12.710Z,57.67
2023-03-17T01:57:56.541Z,61.67
2023-03-17T02:00:28.787Z,50.00
2023-03-17T02:02:58.521Z,60.67
2023-03-17T02:05:31.155Z,62.00
2023-03-17T02:08:00.765Z,69.67
2023-03-17T02:10:30.371Z,52.00
2023-03-17T02:13:04.086Z,50.00
2023-03-17T02:15:52.362Z,58.50
2023-03-17T02:18:24.051Z,50.00
2023-03-17T02:21:39.642Z,38.50
2023-03-17T02:24:48.882Z,7.67
2023-03-17T02:27:39.660Z,55.00
2023-03-17T02:30:13.147Z,44.00
2023-03-17T02:32:41.414Z,42.00
2023-03-17T02:35:10.388Z,39.50
2023-03-17T02:37:39.140Z,52.00
2023-03-17T02:40:11.428Z,41.50
2023-03-17T02:42:41.299Z,49.00
2023-03-17T02:45:13.314Z,50.50
2023-03-17T02:47:42.371Z,34.00
2023-03-17T02:50:24.027Z,37.50
2023-03-17T02:52:52.247Z,39.00
2023-03-17T02:55:20.874Z,51.00
2023-03-17T02:57:49.581Z,34.67
2023-03-17T03:00:18.041Z,39.50
2023-03-17T03:02:47.156Z,33.00
2023-03-17T03:05:15.031Z,48.00
2023-03-17T03:07:43.734Z,42.00
2023-03-17T03:10:12.071Z,48.00
2023-03-17T03:12:40.704Z,31.00
2023-03-17T03:15:09.862Z,31.50
2023-03-17T03:17:37.705Z,48.00
2023-03-17T03:20:06.904Z,37.50
2023-03-17T03:22:34.657Z,42.50
2023-03-17T03:25:03.567Z,42.50
2023-03-17T03:27:32.664Z,47.00
2023-03-17T03:30:01.167Z,44.00
2023-03-17T03:32:28.986Z,45.00
2023-03-17T03:34:57.030Z,49.00
2023-03-17T03:37:26.167Z,57.50
2023-03-17T03:39:53.920Z,50.50
2023-03-17T03:42:21.691Z,47.00
2023-03-17T03:44:49.451Z,52.00
2023-03-17T03:47:19.048Z,58.33
2023-03-17T03:49:46.891Z,36.50
2023-03-17T03:52:15.817Z,68.00
2023-03-17T03:54:44.640Z,60.50
2023-03-17T03:57:13.445Z,60.50
2023-03-17T03:59:42.961Z,61.67
2023-03-17T04:02:11.845Z,59.50
2023-03-17T04:04:42.270Z,53.67
2023-03-17T04:07:11.394Z,59.00
2023-03-17T04:09:39.469Z,66.50
2023-03-17T04:12:09.396Z,68.50
2023-03-17T04:14:38.215Z,79.50
2023-03-17T04:17:07.000Z,80.50
2023-03-17T04:19:34.924Z,78.00
2023-03-17T04:22:02.752Z,83.50
2023-03-17T04:24:32.457Z,89.67
2023-03-17T04:27:05.868Z,91.00
2023-03-17T04:29:34.580Z,82.00
2023-03-17T04:32:04.909Z,81.33
2023-03-17T04:34:32.846Z,70.00
2023-03-17T04:37:00.753Z,70.00
2023-03-17T04:39:29.200Z,84.50
2023-03-17T04:41:57.100Z,64.00
2023-03-17T04:44:25.006Z,79.00
2023-03-17T04:46:53.759Z,74.50
2023-03-17T04:49:22.772Z,82.00
2023-03-17T04:51:50.616Z,72.50
2023-03-17T04:54:18.751Z,52.00
2023-03-17T04:56:47.601Z,57.50
2023-03-17T04:59:16.437Z,67.50
2023-03-17T05:01:45.301Z,75.50
2023-03-17T05:04:22.095Z,59.00
2023-03-17T05:07:00.067Z,57.50
2023-03-17T05:09:28.899Z,46.33
2023-03-17T05:11:56.790Z,50.50
2023-03-17T05:14:24.746Z,53.50
2023-03-17T05:16:54.351Z,53.33
2023-03-17T05:19:23.091Z,74.50
2023-03-17T05:21:51.675Z,73.00
2023-03-17T05:24:19.598Z,71.00
2023-03-17T05:26:47.412Z,70.50
2023-03-17T05:29:15.208Z,66.00
2023-03-17T05:31:43.485Z,50.00
2023-03-17T05:34:11.445Z,65.00
2023-03-17T05:36:39.363Z,68.00
2023-03-17T05:39:09.234Z,71.50
2023-03-17T05:41:38.050Z,54.00
2023-03-17T05:44:06.806Z,39.00
2023-03-17T05:46:35.636Z,55.50
2023-03-17T05:49:04.499Z,51.50
2023-03-17T05:51:34.778Z,65.50
2023-03-17T05:54:04.767Z,58.50
2023-03-17T05:56:34.553Z,53.67
2023-03-17T05:59:03.494Z,56.00
2023-03-17T06:01:32.518Z,40.00
2023-03-17T06:04:01.951Z,45.00
2023-03-17T06:06:29.897Z,56.50
2023-03-17T06:08:59.010Z,65.00
2023-03-17T06:11:27.560Z,54.00
2023-03-17T06:13:57.201Z,68.67
2023-03-17T06:16:29.048Z,67.33
2023-03-17T06:18:58.590Z,69.67
2023-03-17T06:21:27.472Z,54.00
2023-03-17T06:23:57.002Z,61.67
2023-03-17T06:26:26.338Z,52.00
2023-03-17T06:28:56.270Z,60.33
2023-03-17T06:31:26.646Z,79.50
2023-03-17T06:33:55.402Z,50.00
2023-03-17T06:36:26.081Z,64.00
2023-03-17T06:38:55.631Z,53.00
2023-03-17T06:41:25.285Z,71.33
2023-03-17T06:43:54.035Z,33.33
2023-03-17T06:46:23.518Z,47.33
2023-03-17T06:48:52.152Z,36.00
2023-03-17T06:51:21.626Z,31.33
2023-03-17T06:53:50.225Z,35.67
2023-03-17T06:56:29.400Z,32.67
2023-03-17T06:58:59.041Z,32.00
2023-03-17T07:01:28.854Z,42.33
2023-03-17T07:03:58.897Z,117.33
2023-03-17T07:06:28.771Z,76.50
2023-03-17T07:09:00.941Z,38.00
2023-03-17T07:11:32.808Z,33.67
2023-03-17T07:14:01.617Z,31.67
2023-03-17T07:16:31.155Z,30.00
2023-03-17T07:19:02.223Z,27.67
2023-03-17T07:21:31.813Z,30.67
2023-03-17T07:24:00.469Z,26.67
2023-03-17T07:26:29.995Z,34.67
2023-03-17T07:29:01.003Z,17.00
2023-03-17T07:31:30.798Z,35.33
2023-03-17T07:33:59.551Z,32.00
2023-03-17T07:36:28.207Z,38.00
2023-03-17T07:38:57.056Z,25.00
2023-03-17T07:41:25.741Z,19.00
2023-03-17T07:43:53.469Z,19.00
2023-03-17T07:46:22.292Z,32.00
2023-03-17T07:48:50.148Z,8.00
2023-03-17T07:51:22.402Z,16.00
2023-03-17T07:53:52.051Z,49.67
2023-03-17T07:56:21.508Z,23.00
2023-03-17T07:58:49.180Z,25.50
2023-03-17T08:01:17.708Z,15.33
2023-03-17T08:03:46.697Z,25.00
2023-03-17T08:06:14.452Z,30.00
2023-03-17T08:08:42.264Z,16.00
2023-03-17T08:11:10.862Z,14.00
2023-03-17T08:13:39.472Z,12.67
2023-03-17T08:16:08.196Z,20.00
2023-03-17T08:18:37.270Z,15.33
2023-03-17T08:21:06.356Z,18.50
2023-03-17T08:23:35.080Z,15.00
2023-03-17T08:26:05.200Z,16.50
2023-03-17T08:28:34.661Z,16.33
2023-03-17T08:31:18.204Z,18.33
2023-03-17T08:33:51.492Z,57.00
2023-03-17T08:36:21.437Z,12.00
2023-03-17T08:38:50.408Z,20.00
2023-03-17T08:41:22.948Z,23.00
2023-03-17T08:43:51.865Z,12.00
2023-03-17T08:46:27.239Z,17.33
2023-03-17T08:48:58.232Z,19.67
2023-03-17T08:51:34.906Z,7.33
2023-03-17T08:54:06.163Z,12.00
2023-03-17T08:56:34.340Z,13.00
2023-03-17T08:59:02.127Z,10.50
2023-03-17T09:01:29.879Z,11.00
2023-03-17T09:03:59.382Z,22.00
2023-03-17T09:06:27.808Z,8.50
2023-03-17T09:08:55.798Z,11.00
2023-03-17T09:11:29.245Z,22.33
2023-03-17T09:13:59.317Z,17.67
2023-03-17T09:16:28.661Z,11.50
2023-03-17T09:18:58.269Z,10.20
2023-03-17T09:21:28.138Z,12.00
2023-03-17T09:23:55.954Z,11.50
2023-03-17T09:26:25.316Z,7.00
2023-03-17T09:28:53.452Z,11.50
2023-03-17T09:31:21.709Z,7.00
2023-03-17T09:33:49.469Z,6.00
2023-03-17T09:36:17.247Z,11.00
2023-03-17T09:38:47.971Z,136.00
2023-03-17T09:41:23.661Z,4.00
2023-03-17T09:44:38.732Z,24.50
2023-03-17T09:47:59.150Z,26.00
2023-03-17T09:50:54.170Z,79.67
2023-03-17T09:54:04.297Z,11.50
2023-03-17T09:56:35.993Z,26.50
2023-03-17T09:59:35.344Z,5.00
2023-03-17T10:02:03.230Z,10.00
2023-03-17T10:04:32.408Z,27.50
2023-03-17T10:07:06.832Z,14.00
2023-03-17T10:10:04.261Z,8.60
2023-03-17T10:13:17.850Z,8.00
2023-03-17T10:16:07.795Z,24.00
2023-03-17T10:18:56.956Z,4.00
2023-03-17T10:21:41.788Z,8.50
2023-03-17T10:24:12.387Z,11.50
2023-03-17T10:26:53.443Z,12.00
2023-03-17T10:29:24.120Z,11.00
2023-03-17T10:31:56.367Z,17.00
2023-03-17T10:34:37.738Z,28.50
2023-03-17T10:37:09.833Z,19.00
2023-03-17T10:39:50.468Z,16.50
2023-03-17T10:42:33.140Z,20.50
2023-03-17T10:45:28.054Z,5.50
2023-03-17T10:48:00.004Z,22.00
2023-03-17T10:50:49.597Z,7.00
2023-03-17T10:53:29.959Z,72.33
2023-03-17T10:56:20.460Z,15.33
2023-03-17T10:58:51.595Z,10.00
2023-03-17T11:01:36.597Z,9.00
2023-03-17T11:04:33.978Z,17.50
2023-03-17T11:07:34.777Z,31.67
2023-03-17T11:10:24.804Z,8.50
2023-03-17T11:13:02.106Z,15.00
2023-03-17T11:15:48.295Z,7.00
2023-03-17T11:18:52.852Z,12.00
2023-03-17T11:21:32.076Z,15.00
2023-03-17T11:24:25.416Z,40.67
2023-03-17T11:27:31.779Z,8.50
2023-03-17T11:30:38.550Z,11.00
2023-03-17T11:33:34.811Z,11.00
2023-03-17T11:36:36.465Z,12.50
2023-03-17T11:39:20.893Z,15.50
2023-03-17T11:42:51.554Z,11.33
2023-03-17T11:46:13.424Z,7.00
2023-03-17T11:49:14.960Z,12.00
2023-03-17T11:52:16.549Z,10.00
2023-03-17T11:55:04.853Z,17.00
2023-03-17T11:58:10.749Z,11.00
2023-03-17T12:00:52.687Z,13.00
2023-03-17T12:03:48.860Z,20.33
2023-03-17T12:06:33.927Z,8.00
2023-03-17T12:09:20.430Z,14.00
2023-03-17T12:11:52.746Z,10.50
2023-03-17T12:14:36.128Z,9.00
2023-03-17T12:17:27.956Z,7.00
2023-03-17T12:20:49.000Z,13.50
2023-03-17T12:23:56.832Z,10.00
2023-03-17T12:26:53.978Z,18.00
2023-03-17T12:30:08.048Z,16.50
2023-03-17T12:33:21.849Z,19.67
2023-03-17T12:35:52.284Z,7.60
2023-03-17T12:38:40.407Z,7.00
2023-03-17T12:42:02.247Z,14.50
2023-03-17T12:45:15.130Z,5.00
2023-03-17T12:48:08.211Z,9.00
2023-03-17T12:51:35.060Z,10.00
2023-03-17T12:54:04.240Z,10.50
2023-03-17T12:56:34.591Z,10.00
2023-03-17T12:59:09.927Z,9.00
2023-03-17T13:01:59.346Z,9.80
2023-03-17T13:04:37.037Z,6.00
2023-03-17T13:07:22.261Z,8.50
2023-03-17T13:09:57.538Z,14.00
2023-03-17T13:12:40.527Z,12.50
2023-03-17T13:15:39.833Z,18.67
2023-03-17T13:18:36.841Z,13.00
2023-03-17T13:21:12.807Z,7.33
2023-03-17T13:24:16.850Z,11.00
2023-03-17T13:27:01.928Z,9.00
2023-03-17T13:29:32.832Z,9.00
2023-03-17T13:32:34.102Z,5.80
2023-03-17T13:35:01.820Z,10.00
2023-03-17T13:37:53.084Z,16.50
2023-03-17T13:40:24.248Z,12.00
2023-03-17T13:43:52.294Z,6.50
2023-03-17T13:46:40.131Z,8.80
2023-03-17T13:49:21.463Z,12.00
2023-03-17T13:52:30.569Z,9.00
2023-03-17T13:55:20.721Z,12.00
2023-03-17T13:58:24.339Z,13.50
2023-03-17T14:01:03.877Z,20.67
2023-03-17T14:03:51.370Z,10.29
2023-03-17T14:06:28.204Z,10.50
2023-03-17T14:09:08.410Z,19.00
2023-03-17T14:11:40.341Z,9.00
2023-03-17T14:15:07.546Z,6.00
2023-03-17T14:17:54.145Z,20.00
2023-03-17T14:20:27.430Z,36.00
2023-03-17T14:23:01.731Z,9.50
2023-03-17T14:25:40.768Z,12.50
2023-03-17T14:28:16.008Z,9.00
2023-03-17T14:31:02.114Z,15.67
2023-03-17T14:33:38.825Z,10.00
2023-03-17T14:36:14.313Z,11.50
2023-03-17T14:38:57.202Z,16.33
2023-03-17T14:41:28.454Z,17.67
2023-03-17T14:44:02.329Z,29.00
2023-03-17T14:46:37.186Z,33.67
2023-03-17T14:49:19.165Z,46.67
2023-03-17T14:51:53.695Z,17.67
2023-03-17T14:54:32.876Z,17.00
2023-03-17T14:57:14.921Z,29.50
2023-03-17T15:00:16.638Z,11.00
2023-03-17T15:02:59.893Z,19.50
2023-03-17T15:05:41.437Z,11.33
2023-03-17T15:08:44.490Z,15.50
2023-03-17T15:11:22.352Z,37.33
2023-03-17T15:14:04.924Z,16.33
2023-03-17T15:16:36.578Z,26.00
2023-03-17T15:19:40.721Z,32.33
2023-03-17T15:22:36.152Z,18.00
2023-03-17T15:25:38.652Z,19.00
2023-03-17T15:28:18.428Z,14.00
2023-03-17T15:30:54.461Z,12.50
2023-03-17T15:33:37.130Z,16.50
2023-03-17T15:36:07.946Z,11.60
2023-03-17T15:38:39.148Z,12.20
2023-03-17T15:41:07.568Z,15.00
2023-03-17T15:43:35.502Z,19.50
2023-03-17T15:46:22.465Z,18.00
2023-03-17T15:48:50.570Z,24.50
2023-03-17T15:51:19.286Z,22.00
2023-03-17T15:53:48.886Z,28.67
2023-03-17T15:56:21.959Z,24.50
2023-03-17T15:58:52.472Z,20.50
2023-03-17T16:01:20.970Z,15.50
2023-03-17T16:03:49.650Z,10.00
2023-03-17T16:06:22.461Z,15.00
2023-03-17T16:08:52.232Z,14.00
2023-03-17T16:11:28.447Z,22.50
2023-03-17T16:13:59.758Z,27.00
2023-03-17T16:16:39.217Z,21.50
2023-03-17T16:19:20.316Z,19.50
2023-03-17T16:21:49.148Z,15.50
2023-03-17T16:24:24.152Z,25.50
2023-03-17T16:26:54.382Z,70.33
2023-03-17T16:29:24.806Z,110.25
2023-03-17T16:31:54.386Z,152.33
2023-03-17T16:34:24.416Z,167.50
2023-03-17T16:36:52.179Z,149.50
2023-03-17T16:39:24.704Z,114.50
2023-03-17T16:41:55.334Z,104.00
2023-03-17T16:44:24.094Z,100.00
2023-03-17T16:46:53.757Z,89.67
2023-03-17T16:49:23.369Z,74.33
2023-03-17T16:51:52.852Z,57.67
2023-03-17T16:54:21.504Z,50.33
2023-03-17T16:56:51.525Z,37.00
2023-03-17T16:59:24.568Z,44.33
2023-03-17T17:01:55.010Z,46.00
2023-03-17T17:04:26.835Z,40.50
2023-03-17T17:06:56.792Z,48.00
2023-03-17T17:09:26.241Z,43.33
2023-03-17T17:11:56.194Z,46.33
2023-03-17T17:14:24.865Z,32.33
2023-03-17T17:16:54.528Z,35.33
2023-03-17T17:19:24.043Z,72.33
2023-03-17T17:21:51.881Z,151.50
2023-03-17T17:24:19.707Z,145.50
2023-03-17T17:26:47.576Z,184.00
2023-03-17T17:29:17.175Z,207.00
2023-03-17T17:31:46.843Z,139.50
2023-03-17T17:34:16.363Z,75.00
2023-03-17T17:36:46.082Z,92.67
2023-03-17T17:39:15.686Z,84.33
2023-03-17T17:41:45.376Z,77.67
2023-03-17T17:44:16.011Z,103.50
2023-03-17T17:46:45.693Z,108.33
2023-03-17T17:49:16.198Z,134.50
2023-03-17T17:51:45.174Z,138.50
2023-03-17T17:54:13.082Z,159.50
2023-03-17T17:56:46.866Z,179.50
2023-03-17T17:59:17.489Z,301.50
2023-03-17T18:01:48.136Z,475.75
2023-03-17T18:04:18.128Z,519.33
2023-03-17T18:06:47.965Z,541.00
2023-03-17T18:09:18.710Z,587.33
2023-03-17T18:11:51.321Z,652.33
2023-03-17T18:14:21.467Z,597.40
2023-03-17T18:16:52.312Z,462.50
2023-03-17T18:19:23.304Z,378.25
2023-03-17T18:21:53.102Z,242.00
2023-03-17T18:24:22.875Z,306.67
2023-03-17T18:26:52.712Z,276.00
2023-03-17T18:29:22.544Z,275.67
2023-03-17T18:31:56.522Z,244.00
2023-03-17T18:34:37.930Z,236.75
2023-03-17T18:37:08.956Z,272.00
2023-03-17T18:39:41.309Z,250.00
2023-03-17T18:42:12.038Z,262.67
2023-03-17T18:44:41.805Z,249.00
2023-03-17T18:47:13.486Z,242.50
2023-03-17T18:49:46.071Z,228.50
2023-03-17T18:52:17.562Z,216.33
2023-03-17T18:54:48.099Z,238.75
2023-03-17T18:57:18.717Z,377.50
2023-03-17T18:59:49.350Z,465.25
2023-03-17T19:02:20.714Z,396.50
2023-03-17T19:04:51.587Z,465.25
2023-03-17T19:07:22.456Z,499.00
2023-03-17T19:09:53.077Z,439.00
2023-03-17T19:12:24.102Z,406.25
2023-03-17T19:14:54.985Z,383.00
2023-03-17T19:17:25.674Z,232.25
2023-03-17T19:19:58.051Z,314.33
2023-03-17T19:22:28.069Z,279.33
2023-03-17T19:24:57.781Z,303.25
2023-03-17T19:27:27.683Z,279.75
2023-03-17T19:29:57.383Z,295.33
2023-03-17T19:32:27.211Z,248.67
2023-03-17T19:34:57.848Z,240.00
2023-03-17T19:37:27.565Z,246.75
2023-03-17T19:39:57.218Z,209.50
2023-03-17T19:42:27.871Z,161.00
2023-03-17T19:44:58.445Z,211.50
2023-03-17T19:47:28.092Z,163.25
2023-03-17T19:49:58.652Z,157.75
2023-03-17T19:52:29.294Z,150.75
2023-03-17T19:54:59.180Z,217.67
2023-03-17T19:57:29.768Z,172.25
2023-03-17T20:00:00.298Z,173.75
2023-03-17T20:02:30.975Z,188.00
2023-03-17T20:05:00.902Z,186.25
2023-03-17T20:07:32.788Z,197.00
2023-03-17T20:10:03.841Z,249.67
2023-03-17T20:12:38.120Z,168.75
2023-03-17T20:15:12.541Z,205.50
2023-03-17T20:17:43.651Z,132.25
2023-03-17T20:20:14.673Z,105.67
2023-03-17T20:22:45.313Z,130.00
2023-03-17T20:25:15.039Z,110.33
2023-03-17T20:27:45.569Z,143.00
2023-03-17T20:30:17.154Z,132.25
2023-03-17T20:32:45.342Z,142.00
2023-03-17T20:35:15.966Z,168.00
2023-03-17T20:37:46.873Z,178.25
2023-03-17T20:40:18.163Z,177.25
2023-03-17T20:42:48.712Z,179.75
2023-03-17T20:45:20.134Z,211.00
2023-03-17T20:47:50.826Z,243.00
2023-03-17T20:50:22.970Z,238.75
2023-03-17T20:52:53.970Z,240.25
2023-03-17T20:55:23.896Z,291.25
2023-03-17T20:57:53.607Z,232.50
2023-03-17T21:00:23.617Z,185.25
2023-03-17T21:02:53.440Z,119.33
2023-03-17T21:05:27.669Z,139.67
2023-03-17T21:07:58.411Z,156.50
2023-03-17T21:10:29.249Z,142.75
2023-03-17T21:12:59.796Z,153.75
2023-03-17T21:15:29.670Z,120.33
2023-03-17T21:17:59.427Z,181.25
2023-03-17T21:20:29.644Z,133.67
2023-03-17T21:23:00.509Z,130.33
2023-03-17T21:25:31.274Z,127.00
2023-03-17T21:28:01.678Z,140.67
2023-03-17T21:30:34.012Z,151.00
2023-03-17T21:33:05.573Z,145.25
2023-03-17T21:35:36.911Z,131.25
2023-03-17T21:38:07.026Z,119.67
2023-03-17T21:40:37.102Z,176.75
2023-03-17T21:43:08.071Z,161.25
2023-03-17T21:45:39.484Z,182.00
2023-03-17T21:48:10.598Z,173.50
2023-03-17T21:50:41.279Z,187.75
2023-03-17T21:53:15.942Z,173.33
2023-03-17T21:55:45.666Z,155.50
2023-03-17T21:58:15.335Z,121.33
2023-03-17T22:00:46.346Z,99.00
2023-03-17T22:03:16.192Z,131.00
2023-03-17T22:05:47.313Z,122.33
2023-03-17T22:08:21.638Z,145.50
2023-03-17T22:10:52.991Z,138.00
2023-03-17T22:13:22.740Z,139.00
2023-03-17T22:15:53.647Z,152.50
2023-03-17T22:18:24.187Z,154.75
2023-03-17T22:20:59.714Z,152.75
2023-03-17T22:23:30.958Z,154.00
2023-03-17T22:26:01.505Z,150.00
2023-03-17T22:28:32.533Z,134.00
2023-03-17T22:31:04.984Z,123.33
2023-03-17T22:33:35.084Z,123.00
2023-03-17T22:36:05.743Z,109.67
2023-03-17T22:38:35.892Z,102.67
2023-03-17T22:41:10.555Z,105.00
2023-03-17T22:43:41.757Z,87.00
2023-03-17T22:46:13.201Z,95.67
2023-03-17T22:48:43.217Z,88.00
2023-03-17T22:51:19.604Z,87.00
2023-03-17T22:53:48.192Z,71.50
2023-03-17T22:56:19.230Z,77.50
2023-03-17T22:58:48.314Z,73.00
2023-03-17T23:01:19.538Z,83.33
2023-03-17T23:03:48.381Z,72.00
2023-03-17T23:06:17.865Z,73.00
2023-03-17T23:08:48.220Z,83.00
2023-03-17T23:11:24.066Z,82.67
2023-03-17T23:13:54.262Z,89.00
2023-03-17T23:16:24.302Z,97.67
2023-03-17T23:18:53.937Z,96.67
2023-03-17T23:21:33.433Z,119.67
2023-03-17T23:24:05.161Z,118.00
2023-03-17T23:26:37.132Z,122.33
2023-03-17T23:29:09.679Z,130.67
2023-03-17T23:31:41.042Z,120.33
2023-03-17T23:34:12.204Z,148.00
2023-03-17T23:36:42.351Z,123.00
2023-03-17T23:39:12.236Z,107.00
2023-03-17T23:41:41.992Z,103.33
2023-03-17T23:44:11.984Z,91.67
2023-03-17T23:46:41.866Z,87.67
2023-03-17T23:49:12.344Z,100.00
2023-03-17T23:51:42.023Z,104.67
2023-03-17T23:54:11.652Z,96.00
2023-03-17T23:56:41.282Z,96.33
2023-03-17T23:59:11.893Z,98.33
